sensor_id;sensor_type;location;lat;lon;timestamp;temperature;humidity
30244;DHT22;64022;53.652;9.792;2023-02-22T00:00:17;20.90;64.60
30244;DHT22;64022;53.652;9.792;2023-02-22T00:02:45;21.00;64.70
30244;DHT22;64022;53.652;9.792;2023-02-22T00:05:11;21.00;64.70
30244;DHT22;64022;53.652;9.792;2023-02-22T00:07:39;21.00;64.60
30244;DHT22;64022;53.652;9.792;2023-02-22T00:10:05;21.00;64.60
30244;DHT22;64022;53.652;9.792;2023-02-22T00:12:46;20.90;64.60
30244;DHT22;64022;53.652;9.792;2023-02-22T00:15:15;20.90;64.60
30244;DHT22;64022;53.652;9.792;2023-02-22T00:17:41;20.90;64.30
30244;DHT22;64022;53.652;9.792;2023-02-22T00:20:08;20.90;64.70
30244;DHT22;64022;53.652;9.792;2023-02-22T00:22:41;21.00;64.70
30244;DHT22;64022;53.652;9.792;2023-02-22T00:25:08;20.90;64.70
30244;DHT22;64022;53.652;9.792;2023-02-22T00:27:33;21.00;64.70
30244;DHT22;64022;53.652;9.792;2023-02-22T00:29:59;21.00;64.70
30244;DHT22;64022;53.652;9.792;2023-02-22T00:32:25;20.90;64.70
30244;DHT22;64022;53.652;9.792;2023-02-22T00:34:52;20.90;64.60
30244;DHT22;64022;53.652;9.792;2023-02-22T00:37:18;21.00;64.70
30244;DHT22;64022;53.652;9.792;2023-02-22T00:39:46;21.00;64.70
30244;DHT22;64022;53.652;9.792;2023-02-22T00:42:12;21.00;64.70
30244;DHT22;64022;53.652;9.792;2023-02-22T00:44:38;21.00;64.70
30244;DHT22;64022;53.652;9.792;2023-02-22T00:47:04;21.00;64.70
30244;DHT22;64022;53.652;9.792;2023-02-22T00:49:29;20.90;64.60
30244;DHT22;64022;53.652;9.792;2023-02-22T00:51:55;21.00;64.70
30244;DHT22;64022;53.652;9.792;2023-02-22T00:54:20;21.00;64.70
30244;DHT22;64022;53.652;9.792;2023-02-22T00:56:46;21.00;64.70
30244;DHT22;64022;53.652;9.792;2023-02-22T00:59:11;21.00;64.70
30244;DHT22;64022;53.652;9.792;2023-02-22T01:01:37;21.00;64.70
30244;DHT22;64022;53.652;9.792;2023-02-22T01:04:02;21.00;64.70
30244;DHT22;64022;53.652;9.792;2023-02-22T01:06:28;21.00;64.70
30244;DHT22;64022;53.652;9.792;2023-02-22T01:08:53;21.00;64.70
30244;DHT22;64022;53.652;9.792;2023-02-22T01:11:19;20.90;64.70
30244;DHT22;64022;53.652;9.792;2023-02-22T01:13:46;21.00;64.70
30244;DHT22;64022;53.652;9.792;2023-02-22T01:16:12;21.00;64.80
30244;DHT22;64022;53.652;9.792;2023-02-22T01:18:38;21.00;64.70
30244;DHT22;64022;53.652;9.792;2023-02-22T01:21:04;20.90;64.70
30244;DHT22;64022;53.652;9.792;2023-02-22T01:23:30;20.90;64.70
30244;DHT22;64022;53.652;9.792;2023-02-22T01:25:56;21.00;64.80
30244;DHT22;64022;53.652;9.792;2023-02-22T01:28:22;21.00;64.80
30244;DHT22;64022;53.652;9.792;2023-02-22T01:30:47;20.90;64.70
30244;DHT22;64022;53.652;9.792;2023-02-22T01:33:14;20.90;64.80
30244;DHT22;64022;53.652;9.792;2023-02-22T01:35:41;20.90;64.80
30244;DHT22;64022;53.652;9.792;2023-02-22T01:38:08;20.90;64.80
30244;DHT22;64022;53.652;9.792;2023-02-22T01:40:37;21.00;64.90
30244;DHT22;64022;53.652;9.792;2023-02-22T01:43:20;21.00;64.80
30244;DHT22;64022;53.652;9.792;2023-02-22T01:46:18;21.00;64.80
30244;DHT22;64022;53.652;9.792;2023-02-22T01:48:46;21.00;64.70
30244;DHT22;64022;53.652;9.792;2023-02-22T01:51:20;20.90;64.50
30244;DHT22;64022;53.652;9.792;2023-02-22T01:53:58;20.90;65.00
30244;DHT22;64022;53.652;9.792;2023-02-22T01:56:28;20.90;64.90
30244;DHT22;64022;53.652;9.792;2023-02-22T01:59:06;20.90;64.90
30244;DHT22;64022;53.652;9.792;2023-02-22T02:01:34;20.90;65.10
30244;DHT22;64022;53.652;9.792;2023-02-22T02:04:04;20.90;64.90
30244;DHT22;64022;53.652;9.792;2023-02-22T02:06:32;20.90;64.90
30244;DHT22;64022;53.652;9.792;2023-02-22T02:11:30;20.90;64.90
30244;DHT22;64022;53.652;9.792;2023-02-22T02:13:57;20.90;64.90
30244;DHT22;64022;53.652;9.792;2023-02-22T02:16:34;20.90;64.90
30244;DHT22;64022;53.652;9.792;2023-02-22T02:19:02;20.90;64.80
30244;DHT22;64022;53.652;9.792;2023-02-22T02:24:31;20.90;64.90
30244;DHT22;64022;53.652;9.792;2023-02-22T02:27:17;20.90;64.90
30244;DHT22;64022;53.652;9.792;2023-02-22T02:33:28;20.90;64.70
30244;DHT22;64022;53.652;9.792;2023-02-22T02:36:07;20.90;64.90
30244;DHT22;64022;53.652;9.792;2023-02-22T02:38:38;20.90;64.90
30244;DHT22;64022;53.652;9.792;2023-02-22T02:44:08;20.90;64.90
30244;DHT22;64022;53.652;9.792;2023-02-22T02:46:46;20.90;64.80
30244;DHT22;64022;53.652;9.792;2023-02-22T02:49:18;20.90;65.00
30244;DHT22;64022;53.652;9.792;2023-02-22T02:51:50;20.90;64.90
30244;DHT22;64022;53.652;9.792;2023-02-22T02:54:17;20.90;65.00
30244;DHT22;64022;53.652;9.792;2023-02-22T02:56:42;20.90;64.90
30244;DHT22;64022;53.652;9.792;2023-02-22T02:59:33;20.90;64.90
30244;DHT22;64022;53.652;9.792;2023-02-22T03:05:17;20.90;64.80
30244;DHT22;64022;53.652;9.792;2023-02-22T03:08:00;20.90;64.90
30244;DHT22;64022;53.652;9.792;2023-02-22T03:13:30;20.90;64.90
30244;DHT22;64022;53.652;9.792;2023-02-22T03:21:59;20.90;64.90
30244;DHT22;64022;53.652;9.792;2023-02-22T03:24:35;20.90;64.90
30244;DHT22;64022;53.652;9.792;2023-02-22T03:27:20;20.90;65.00
30244;DHT22;64022;53.652;9.792;2023-02-22T03:29:50;20.80;64.80
30244;DHT22;64022;53.652;9.792;2023-02-22T03:32:21;20.90;65.00
30244;DHT22;64022;53.652;9.792;2023-02-22T03:34:52;20.80;64.90
30244;DHT22;64022;53.652;9.792;2023-02-22T03:37:24;20.90;64.90
30244;DHT22;64022;53.652;9.792;2023-02-22T03:39:53;20.90;64.90
30244;DHT22;64022;53.652;9.792;2023-02-22T03:42:29;20.90;64.90
30244;DHT22;64022;53.652;9.792;2023-02-22T03:44:58;20.90;64.90
30244;DHT22;64022;53.652;9.792;2023-02-22T03:47:46;20.90;64.90
30244;DHT22;64022;53.652;9.792;2023-02-22T03:50:21;20.90;64.90
30244;DHT22;64022;53.652;9.792;2023-02-22T03:52:51;20.90;64.90
30244;DHT22;64022;53.652;9.792;2023-02-22T03:55:16;20.90;64.90
30244;DHT22;64022;53.652;9.792;2023-02-22T03:57:48;20.90;64.90
30244;DHT22;64022;53.652;9.792;2023-02-22T04:00:19;20.90;64.90
30244;DHT22;64022;53.652;9.792;2023-02-22T04:02:46;20.90;64.90
30244;DHT22;64022;53.652;9.792;2023-02-22T04:05:12;20.90;64.90
30244;DHT22;64022;53.652;9.792;2023-02-22T04:07:38;20.90;64.90
30244;DHT22;64022;53.652;9.792;2023-02-22T04:10:04;20.90;64.90
30244;DHT22;64022;53.652;9.792;2023-02-22T04:12:33;20.90;64.90
30244;DHT22;64022;53.652;9.792;2023-02-22T04:14:59;20.90;64.90
30244;DHT22;64022;53.652;9.792;2023-02-22T04:17:25;20.90;64.90
30244;DHT22;64022;53.652;9.792;2023-02-22T04:19:50;20.80;64.80
30244;DHT22;64022;53.652;9.792;2023-02-22T04:22:16;20.90;64.90
30244;DHT22;64022;53.652;9.792;2023-02-22T04:24:41;20.90;64.90
30244;DHT22;64022;53.652;9.792;2023-02-22T04:27:07;20.90;64.90
30244;DHT22;64022;53.652;9.792;2023-02-22T04:29:33;20.80;64.80
30244;DHT22;64022;53.652;9.792;2023-02-22T04:31:58;20.90;64.90
30244;DHT22;64022;53.652;9.792;2023-02-22T04:34:24;20.90;64.90
30244;DHT22;64022;53.652;9.792;2023-02-22T04:36:49;20.90;64.90
30244;DHT22;64022;53.652;9.792;2023-02-22T04:39:15;20.80;64.80
30244;DHT22;64022;53.652;9.792;2023-02-22T04:41:40;20.90;64.90
30244;DHT22;64022;53.652;9.792;2023-02-22T04:44:06;20.90;64.80
30244;DHT22;64022;53.652;9.792;2023-02-22T04:46:31;20.80;64.80
30244;DHT22;64022;53.652;9.792;2023-02-22T04:48:57;20.90;64.90
30244;DHT22;64022;53.652;9.792;2023-02-22T04:51:23;20.80;64.80
30244;DHT22;64022;53.652;9.792;2023-02-22T04:53:49;20.90;64.90
30244;DHT22;64022;53.652;9.792;2023-02-22T04:56:17;20.80;64.80
30244;DHT22;64022;53.652;9.792;2023-02-22T04:58:42;20.80;64.80
30244;DHT22;64022;53.652;9.792;2023-02-22T05:01:08;20.80;64.80
30244;DHT22;64022;53.652;9.792;2023-02-22T05:03:36;20.80;64.80
30244;DHT22;64022;53.652;9.792;2023-02-22T05:06:02;20.90;64.90
30244;DHT22;64022;53.652;9.792;2023-02-22T05:08:27;20.80;64.80
30244;DHT22;64022;53.652;9.792;2023-02-22T05:10:53;20.90;64.90
30244;DHT22;64022;53.652;9.792;2023-02-22T05:13:19;20.80;64.80
30244;DHT22;64022;53.652;9.792;2023-02-22T05:15:45;20.80;64.80
30244;DHT22;64022;53.652;9.792;2023-02-22T05:18:10;20.80;64.80
30244;DHT22;64022;53.652;9.792;2023-02-22T05:20:36;20.80;64.90
30244;DHT22;64022;53.652;9.792;2023-02-22T05:23:02;20.80;64.90
30244;DHT22;64022;53.652;9.792;2023-02-22T05:25:28;20.80;64.90
30244;DHT22;64022;53.652;9.792;2023-02-22T05:28:07;20.90;64.90
30244;DHT22;64022;53.652;9.792;2023-02-22T05:30:34;20.90;65.00
30244;DHT22;64022;53.652;9.792;2023-02-22T05:33:00;20.80;64.90
30244;DHT22;64022;53.652;9.792;2023-02-22T05:35:27;20.90;64.90
30244;DHT22;64022;53.652;9.792;2023-02-22T05:37:53;20.80;64.90
30244;DHT22;64022;53.652;9.792;2023-02-22T05:40:22;20.80;64.90
30244;DHT22;64022;53.652;9.792;2023-02-22T05:42:49;20.90;65.00
30244;DHT22;64022;53.652;9.792;2023-02-22T05:45:16;20.90;65.00
30244;DHT22;64022;53.652;9.792;2023-02-22T05:47:43;20.90;64.90
30244;DHT22;64022;53.652;9.792;2023-02-22T05:50:09;20.80;64.90
30244;DHT22;64022;53.652;9.792;2023-02-22T05:52:35;20.80;64.90
30244;DHT22;64022;53.652;9.792;2023-02-22T05:55:01;20.80;64.90
30244;DHT22;64022;53.652;9.792;2023-02-22T05:57:26;20.80;64.90
30244;DHT22;64022;53.652;9.792;2023-02-22T05:59:52;20.80;64.90
30244;DHT22;64022;53.652;9.792;2023-02-22T06:02:17;20.80;64.90
30244;DHT22;64022;53.652;9.792;2023-02-22T06:04:44;20.80;64.90
30244;DHT22;64022;53.652;9.792;2023-02-22T06:07:09;20.80;64.90
30244;DHT22;64022;53.652;9.792;2023-02-22T06:09:35;20.80;64.90
30244;DHT22;64022;53.652;9.792;2023-02-22T06:12:01;20.80;64.90
30244;DHT22;64022;53.652;9.792;2023-02-22T06:14:26;20.80;64.90
30244;DHT22;64022;53.652;9.792;2023-02-22T06:16:53;20.80;64.90
30244;DHT22;64022;53.652;9.792;2023-02-22T06:19:19;20.80;64.90
30244;DHT22;64022;53.652;9.792;2023-02-22T06:21:53;20.80;65.00
30244;DHT22;64022;53.652;9.792;2023-02-22T06:24:19;20.80;64.90
30244;DHT22;64022;53.652;9.792;2023-02-22T06:26:45;20.80;65.00
30244;DHT22;64022;53.652;9.792;2023-02-22T06:29:10;20.80;65.00
30244;DHT22;64022;53.652;9.792;2023-02-22T06:31:36;20.80;65.00
30244;DHT22;64022;53.652;9.792;2023-02-22T06:34:02;20.80;65.00
30244;DHT22;64022;53.652;9.792;2023-02-22T06:36:28;20.80;65.00
30244;DHT22;64022;53.652;9.792;2023-02-22T06:38:55;20.80;65.00
30244;DHT22;64022;53.652;9.792;2023-02-22T06:41:21;20.80;65.00
30244;DHT22;64022;53.652;9.792;2023-02-22T06:43:47;20.80;65.00
30244;DHT22;64022;53.652;9.792;2023-02-22T06:46:12;20.80;65.10
30244;DHT22;64022;53.652;9.792;2023-02-22T06:48:38;20.80;65.00
30244;DHT22;64022;53.652;9.792;2023-02-22T06:51:07;20.80;65.00
30244;DHT22;64022;53.652;9.792;2023-02-22T06:53:33;20.80;65.00
30244;DHT22;64022;53.652;9.792;2023-02-22T06:55:59;20.80;65.00
30244;DHT22;64022;53.652;9.792;2023-02-22T06:58:25;20.80;65.00
30244;DHT22;64022;53.652;9.792;2023-02-22T07:00:51;20.80;65.00
30244;DHT22;64022;53.652;9.792;2023-02-22T07:03:17;20.80;65.00
30244;DHT22;64022;53.652;9.792;2023-02-22T07:05:42;20.80;65.00
30244;DHT22;64022;53.652;9.792;2023-02-22T07:08:09;20.80;65.00
30244;DHT22;64022;53.652;9.792;2023-02-22T07:10:36;20.80;65.00
30244;DHT22;64022;53.652;9.792;2023-02-22T07:13:02;20.80;65.10
30244;DHT22;64022;53.652;9.792;2023-02-22T07:15:29;20.80;64.80
30244;DHT22;64022;53.652;9.792;2023-02-22T07:17:55;20.70;65.10
30244;DHT22;64022;53.652;9.792;2023-02-22T07:20:26;20.80;65.10
30244;DHT22;64022;53.652;9.792;2023-02-22T07:22:52;20.80;65.10
30244;DHT22;64022;53.652;9.792;2023-02-22T07:25:18;20.70;65.00
30244;DHT22;64022;53.652;9.792;2023-02-22T07:27:44;20.80;65.00
30244;DHT22;64022;53.652;9.792;2023-02-22T07:30:22;20.80;65.00
30244;DHT22;64022;53.652;9.792;2023-02-22T07:32:56;20.70;64.90
30244;DHT22;64022;53.652;9.792;2023-02-22T07:35:24;20.80;65.10
30244;DHT22;64022;53.652;9.792;2023-02-22T07:37:50;20.80;65.10
30244;DHT22;64022;53.652;9.792;2023-02-22T07:40:16;20.80;65.00
30244;DHT22;64022;53.652;9.792;2023-02-22T07:42:52;20.80;65.00
30244;DHT22;64022;53.652;9.792;2023-02-22T07:45:18;20.70;64.90
30244;DHT22;64022;53.652;9.792;2023-02-22T07:47:47;20.80;65.00
30244;DHT22;64022;53.652;9.792;2023-02-22T07:50:17;20.70;64.90
30244;DHT22;64022;53.652;9.792;2023-02-22T07:52:47;20.80;65.00
30244;DHT22;64022;53.652;9.792;2023-02-22T07:55:15;20.70;65.40
30244;DHT22;64022;53.652;9.792;2023-02-22T07:57:42;20.80;65.00
30244;DHT22;64022;53.652;9.792;2023-02-22T08:00:09;20.80;64.90
30244;DHT22;64022;53.652;9.792;2023-02-22T08:02:34;20.80;64.90
30244;DHT22;64022;53.652;9.792;2023-02-22T08:05:00;20.80;64.90
30244;DHT22;64022;53.652;9.792;2023-02-22T08:07:25;20.70;64.80
30244;DHT22;64022;53.652;9.792;2023-02-22T08:09:51;20.80;64.90
30244;DHT22;64022;53.652;9.792;2023-02-22T08:12:16;20.70;64.80
30244;DHT22;64022;53.652;9.792;2023-02-22T08:14:42;20.80;64.90
30244;DHT22;64022;53.652;9.792;2023-02-22T08:17:07;20.70;64.80
30244;DHT22;64022;53.652;9.792;2023-02-22T08:19:33;20.80;64.90
30244;DHT22;64022;53.652;9.792;2023-02-22T08:21:59;20.80;64.90
30244;DHT22;64022;53.652;9.792;2023-02-22T08:24:25;20.70;64.80
30244;DHT22;64022;53.652;9.792;2023-02-22T08:26:50;20.70;64.80
30244;DHT22;64022;53.652;9.792;2023-02-22T08:29:16;20.70;64.80
30244;DHT22;64022;53.652;9.792;2023-02-22T08:31:41;20.70;64.80
30244;DHT22;64022;53.652;9.792;2023-02-22T08:34:07;20.80;64.80
30244;DHT22;64022;53.652;9.792;2023-02-22T08:36:32;20.70;64.70
30244;DHT22;64022;53.652;9.792;2023-02-22T08:38:58;20.70;64.70
30244;DHT22;64022;53.652;9.792;2023-02-22T08:41:24;20.70;64.70
30244;DHT22;64022;53.652;9.792;2023-02-22T08:43:50;20.70;64.70
30244;DHT22;64022;53.652;9.792;2023-02-22T08:46:16;20.80;64.80
30244;DHT22;64022;53.652;9.792;2023-02-22T08:48:51;20.70;64.70
30244;DHT22;64022;53.652;9.792;2023-02-22T08:51:17;20.80;64.70
30244;DHT22;64022;53.652;9.792;2023-02-22T08:53:43;20.80;64.80
30244;DHT22;64022;53.652;9.792;2023-02-22T08:56:09;20.80;64.70
30244;DHT22;64022;53.652;9.792;2023-02-22T08:58:35;20.80;64.70
30244;DHT22;64022;53.652;9.792;2023-02-22T09:01:01;20.80;64.70
30244;DHT22;64022;53.652;9.792;2023-02-22T09:03:26;20.80;64.70
30244;DHT22;64022;53.652;9.792;2023-02-22T09:05:53;20.80;64.70
30244;DHT22;64022;53.652;9.792;2023-02-22T09:08:18;20.80;64.70
30244;DHT22;64022;53.652;9.792;2023-02-22T09:10:44;20.80;64.70
30244;DHT22;64022;53.652;9.792;2023-02-22T09:13:10;20.80;64.70
30244;DHT22;64022;53.652;9.792;2023-02-22T09:15:37;20.80;64.70
30244;DHT22;64022;53.652;9.792;2023-02-22T09:18:05;20.80;64.70
30244;DHT22;64022;53.652;9.792;2023-02-22T09:20:33;20.80;64.70
30244;DHT22;64022;53.652;9.792;2023-02-22T09:23:03;20.80;64.70
30244;DHT22;64022;53.652;9.792;2023-02-22T09:25:30;20.80;64.70
30244;DHT22;64022;53.652;9.792;2023-02-22T09:27:56;20.80;64.70
30244;DHT22;64022;53.652;9.792;2023-02-22T09:30:24;20.80;64.70
30244;DHT22;64022;53.652;9.792;2023-02-22T09:32:55;20.80;64.70
30244;DHT22;64022;53.652;9.792;2023-02-22T09:35:22;20.80;64.70
30244;DHT22;64022;53.652;9.792;2023-02-22T09:37:55;20.80;64.70
30244;DHT22;64022;53.652;9.792;2023-02-22T09:40:22;20.80;64.70
30244;DHT22;64022;53.652;9.792;2023-02-22T09:45:52;20.80;64.60
30244;DHT22;64022;53.652;9.792;2023-02-22T09:48:19;20.80;64.70
30244;DHT22;64022;53.652;9.792;2023-02-22T09:50:46;20.80;65.20
30244;DHT22;64022;53.652;9.792;2023-02-22T09:53:32;20.80;64.70
30244;DHT22;64022;53.652;9.792;2023-02-22T09:56:13;20.80;64.60
30244;DHT22;64022;53.652;9.792;2023-02-22T09:58:42;20.80;64.60
30244;DHT22;64022;53.652;9.792;2023-02-22T10:01:30;20.80;64.70
30244;DHT22;64022;53.652;9.792;2023-02-22T10:04:19;20.80;64.50
30244;DHT22;64022;53.652;9.792;2023-02-22T10:07:05;20.80;64.60
30244;DHT22;64022;53.652;9.792;2023-02-22T10:09:39;20.80;64.60
30244;DHT22;64022;53.652;9.792;2023-02-22T10:14:59;20.80;64.70
30244;DHT22;64022;53.652;9.792;2023-02-22T10:17:35;20.80;64.60
30244;DHT22;64022;53.652;9.792;2023-02-22T10:25:30;20.80;64.60
30244;DHT22;64022;53.652;9.792;2023-02-22T10:28:15;20.80;64.60
30244;DHT22;64022;53.652;9.792;2023-02-22T10:30:49;20.80;64.60
30244;DHT22;64022;53.652;9.792;2023-02-22T10:33:41;20.80;64.60
30244;DHT22;64022;53.652;9.792;2023-02-22T10:36:28;20.80;64.50
30244;DHT22;64022;53.652;9.792;2023-02-22T10:38:58;20.80;64.50
30244;DHT22;64022;53.652;9.792;2023-02-22T10:41:32;20.80;64.60
30244;DHT22;64022;53.652;9.792;2023-02-22T10:44:00;20.80;64.60
30244;DHT22;64022;53.652;9.792;2023-02-22T10:46:27;20.80;64.60
30244;DHT22;64022;53.652;9.792;2023-02-22T10:48:56;20.80;64.60
30244;DHT22;64022;53.652;9.792;2023-02-22T10:51:24;20.80;64.60
30244;DHT22;64022;53.652;9.792;2023-02-22T10:56:49;20.80;64.50
30244;DHT22;64022;53.652;9.792;2023-02-22T10:59:34;20.80;64.50
30244;DHT22;64022;53.652;9.792;2023-02-22T11:02:28;20.80;64.60
30244;DHT22;64022;53.652;9.792;2023-02-22T11:04:57;20.80;64.50
30244;DHT22;64022;53.652;9.792;2023-02-22T11:07:26;20.80;64.60
30244;DHT22;64022;53.652;9.792;2023-02-22T11:10:00;20.80;64.60
30244;DHT22;64022;53.652;9.792;2023-02-22T11:12:29;20.80;64.60
30244;DHT22;64022;53.652;9.792;2023-02-22T11:14:56;20.80;65.10
30244;DHT22;64022;53.652;9.792;2023-02-22T11:17:33;20.80;65.10
30244;DHT22;64022;53.652;9.792;2023-02-22T11:19:59;20.90;64.60
30244;DHT22;64022;53.652;9.792;2023-02-22T11:22:39;20.80;64.50
30244;DHT22;64022;53.652;9.792;2023-02-22T11:25:06;20.80;64.50
30244;DHT22;64022;53.652;9.792;2023-02-22T11:27:41;20.80;64.50
30244;DHT22;64022;53.652;9.792;2023-02-22T11:30:28;20.80;64.50
30244;DHT22;64022;53.652;9.792;2023-02-22T11:35:58;20.80;64.50
30244;DHT22;64022;53.652;9.792;2023-02-22T11:38:32;20.90;64.50
30244;DHT22;64022;53.652;9.792;2023-02-22T11:41:20;20.90;64.60
30244;DHT22;64022;53.652;9.792;2023-02-22T11:43:50;20.90;64.60
30244;DHT22;64022;53.652;9.792;2023-02-22T11:46:19;20.90;64.60
30244;DHT22;64022;53.652;9.792;2023-02-22T11:49:07;20.80;64.50
30244;DHT22;64022;53.652;9.792;2023-02-22T11:54:37;20.90;64.50
30244;DHT22;64022;53.652;9.792;2023-02-22T11:59:49;20.90;64.60
30244;DHT22;64022;53.652;9.792;2023-02-22T12:13:29;20.90;64.50
30244;DHT22;64022;53.652;9.792;2023-02-22T12:19:20;20.90;64.50
30244;DHT22;64022;53.652;9.792;2023-02-22T12:21:54;20.90;64.50
30244;DHT22;64022;53.652;9.792;2023-02-22T12:24:26;20.90;64.50
30244;DHT22;64022;53.652;9.792;2023-02-22T12:26:58;20.80;64.50
30244;DHT22;64022;53.652;9.792;2023-02-22T12:29:35;20.90;64.50
30244;DHT22;64022;53.652;9.792;2023-02-22T12:32:47;20.90;64.50
30244;DHT22;64022;53.652;9.792;2023-02-22T12:38:17;20.90;64.50
30244;DHT22;64022;53.652;9.792;2023-02-22T12:43:40;20.90;64.50
30244;DHT22;64022;53.652;9.792;2023-02-22T12:46:19;20.90;64.60
30244;DHT22;64022;53.652;9.792;2023-02-22T12:48:47;20.90;64.50
30244;DHT22;64022;53.652;9.792;2023-02-22T12:56:30;20.90;64.50
30244;DHT22;64022;53.652;9.792;2023-02-22T12:59:02;20.90;64.50
30244;DHT22;64022;53.652;9.792;2023-02-22T13:01:39;20.90;64.50
30244;DHT22;64022;53.652;9.792;2023-02-22T13:04:08;20.90;64.50
30244;DHT22;64022;53.652;9.792;2023-02-22T13:06:44;20.90;64.50
30244;DHT22;64022;53.652;9.792;2023-02-22T13:09:25;20.90;64.50
30244;DHT22;64022;53.652;9.792;2023-02-22T13:15:07;20.90;64.50
30244;DHT22;64022;53.652;9.792;2023-02-22T13:17:51;20.90;64.40
30244;DHT22;64022;53.652;9.792;2023-02-22T13:20:41;20.90;64.40
30244;DHT22;64022;53.652;9.792;2023-02-22T13:26:27;20.90;64.30
30244;DHT22;64022;53.652;9.792;2023-02-22T13:29:07;20.90;64.40
30244;DHT22;64022;53.652;9.792;2023-02-22T13:42:57;20.90;64.50
30244;DHT22;64022;53.652;9.792;2023-02-22T13:51:49;20.90;64.40
30244;DHT22;64022;53.652;9.792;2023-02-22T13:54:19;20.90;64.50
30244;DHT22;64022;53.652;9.792;2023-02-22T13:56:44;20.90;64.50
30244;DHT22;64022;53.652;9.792;2023-02-22T13:59:32;20.90;64.50
30244;DHT22;64022;53.652;9.792;2023-02-22T14:01:59;20.90;64.40
30244;DHT22;64022;53.652;9.792;2023-02-22T14:09:49;20.90;64.30
30244;DHT22;64022;53.652;9.792;2023-02-22T14:17:40;20.90;64.40
30244;DHT22;64022;53.652;9.792;2023-02-22T14:22:42;20.90;64.50
30244;DHT22;64022;53.652;9.792;2023-02-22T14:25:38;20.90;64.40
30244;DHT22;64022;53.652;9.792;2023-02-22T14:36:34;20.90;64.40
30244;DHT22;64022;53.652;9.792;2023-02-22T14:42:06;20.90;64.30
30244;DHT22;64022;53.652;9.792;2023-02-22T14:44:38;20.90;64.50
30244;DHT22;64022;53.652;9.792;2023-02-22T14:47:06;20.90;64.50
30244;DHT22;64022;53.652;9.792;2023-02-22T14:49:42;20.90;64.50
30244;DHT22;64022;53.652;9.792;2023-02-22T14:52:23;20.90;64.40
30244;DHT22;64022;53.652;9.792;2023-02-22T14:55:05;20.90;64.40
30244;DHT22;64022;53.652;9.792;2023-02-22T14:57:49;20.90;64.40
30244;DHT22;64022;53.652;9.792;2023-02-22T15:00:56;20.90;64.50
30244;DHT22;64022;53.652;9.792;2023-02-22T15:03:28;20.90;64.30
30244;DHT22;64022;53.652;9.792;2023-02-22T15:06:03;20.90;64.50
30244;DHT22;64022;53.652;9.792;2023-02-22T15:08:29;20.90;64.50
30244;DHT22;64022;53.652;9.792;2023-02-22T15:10:56;20.90;64.50
30244;DHT22;64022;53.652;9.792;2023-02-22T15:13:26;20.90;64.50
30244;DHT22;64022;53.652;9.792;2023-02-22T15:16:00;20.90;64.50
30244;DHT22;64022;53.652;9.792;2023-02-22T15:18:27;20.90;64.40
30244;DHT22;64022;53.652;9.792;2023-02-22T15:21:24;20.90;64.40
30244;DHT22;64022;53.652;9.792;2023-02-22T15:23:49;21.00;64.50
30244;DHT22;64022;53.652;9.792;2023-02-22T15:26:38;20.90;64.40
30244;DHT22;64022;53.652;9.792;2023-02-22T15:29:13;20.90;64.30
30244;DHT22;64022;53.652;9.792;2023-02-22T15:31:39;20.90;64.50
30244;DHT22;64022;53.652;9.792;2023-02-22T15:36:47;20.90;64.40
30244;DHT22;64022;53.652;9.792;2023-02-22T15:39:21;20.90;64.50
30244;DHT22;64022;53.652;9.792;2023-02-22T15:42:08;20.90;64.50
30244;DHT22;64022;53.652;9.792;2023-02-22T15:44:36;20.90;64.40
30244;DHT22;64022;53.652;9.792;2023-02-22T15:47:02;20.90;64.50
30244;DHT22;64022;53.652;9.792;2023-02-22T15:49:28;20.90;64.50
30244;DHT22;64022;53.652;9.792;2023-02-22T15:52:05;20.90;64.50
30244;DHT22;64022;53.652;9.792;2023-02-22T15:54:41;21.00;64.50
30244;DHT22;64022;53.652;9.792;2023-02-22T15:57:07;20.90;64.50
30244;DHT22;64022;53.652;9.792;2023-02-22T15:59:41;20.90;64.50
30244;DHT22;64022;53.652;9.792;2023-02-22T16:02:19;20.90;64.50
30244;DHT22;64022;53.652;9.792;2023-02-22T16:04:48;20.90;64.50
30244;DHT22;64022;53.652;9.792;2023-02-22T16:07:15;21.00;64.60
30244;DHT22;64022;53.652;9.792;2023-02-22T16:09:49;20.90;64.50
30244;DHT22;64022;53.652;9.792;2023-02-22T16:12:23;20.90;64.50
30244;DHT22;64022;53.652;9.792;2023-02-22T16:14:50;20.90;64.50
30244;DHT22;64022;53.652;9.792;2023-02-22T16:22:34;20.90;64.50
30244;DHT22;64022;53.652;9.792;2023-02-22T16:27:43;20.90;64.50
30244;DHT22;64022;53.652;9.792;2023-02-22T16:32:47;20.90;64.60
30244;DHT22;64022;53.652;9.792;2023-02-22T16:35:14;20.90;64.60
30244;DHT22;64022;53.652;9.792;2023-02-22T16:37:51;20.90;64.60
30244;DHT22;64022;53.652;9.792;2023-02-22T16:40:22;20.90;64.60
30244;DHT22;64022;53.652;9.792;2023-02-22T16:42:48;20.90;64.60
30244;DHT22;64022;53.652;9.792;2023-02-22T16:45:19;20.90;64.60
30244;DHT22;64022;53.652;9.792;2023-02-22T16:47:45;20.90;65.10
30244;DHT22;64022;53.652;9.792;2023-02-22T16:50:12;20.90;64.60
30244;DHT22;64022;53.652;9.792;2023-02-22T16:52:39;20.90;64.60
30244;DHT22;64022;53.652;9.792;2023-02-22T16:55:09;20.90;64.60
30244;DHT22;64022;53.652;9.792;2023-02-22T16:57:37;20.90;64.60
30244;DHT22;64022;53.652;9.792;2023-02-22T17:00:04;20.90;64.60
30244;DHT22;64022;53.652;9.792;2023-02-22T17:02:37;20.90;64.60
30244;DHT22;64022;53.652;9.792;2023-02-22T17:05:03;20.90;64.70
30244;DHT22;64022;53.652;9.792;2023-02-22T17:07:28;20.90;64.70
30244;DHT22;64022;53.652;9.792;2023-02-22T17:09:55;20.90;64.70
30244;DHT22;64022;53.652;9.792;2023-02-22T17:12:28;20.90;64.80
30244;DHT22;64022;53.652;9.792;2023-02-22T17:14:54;20.90;64.90
30244;DHT22;64022;53.652;9.792;2023-02-22T17:17:20;20.90;65.00
30244;DHT22;64022;53.652;9.792;2023-02-22T17:19:45;20.90;65.10
30244;DHT22;64022;53.652;9.792;2023-02-22T17:22:21;20.90;65.20
30244;DHT22;64022;53.652;9.792;2023-02-22T17:24:47;21.00;65.30
30244;DHT22;64022;53.652;9.792;2023-02-22T17:27:13;21.00;65.60
30244;DHT22;64022;53.652;9.792;2023-02-22T17:29:38;20.90;65.60
30244;DHT22;64022;53.652;9.792;2023-02-22T17:32:09;20.90;66.20
30244;DHT22;64022;53.652;9.792;2023-02-22T17:34:35;20.90;65.90
30244;DHT22;64022;53.652;9.792;2023-02-22T17:37:00;21.00;66.00
30244;DHT22;64022;53.652;9.792;2023-02-22T17:39:26;21.00;66.20
30244;DHT22;64022;53.652;9.792;2023-02-22T17:41:52;20.90;66.30
30244;DHT22;64022;53.652;9.792;2023-02-22T17:44:21;21.00;66.40
30244;DHT22;64022;53.652;9.792;2023-02-22T17:46:46;21.00;66.60
30244;DHT22;64022;53.652;9.792;2023-02-22T17:49:12;21.00;66.60
30244;DHT22;64022;53.652;9.792;2023-02-22T17:51:39;21.00;66.70
30244;DHT22;64022;53.652;9.792;2023-02-22T17:54:05;21.00;66.80
30244;DHT22;64022;53.652;9.792;2023-02-22T17:56:30;21.00;66.10
30244;DHT22;64022;53.652;9.792;2023-02-22T17:58:56;20.90;67.00
30244;DHT22;64022;53.652;9.792;2023-02-22T18:01:27;21.00;67.10